Time;durP1;ratioP1;P1;durP2;ratioP2;P2;SDS_P1;SDS_P2;PMS_P1;PMS_P2;Temp;Humidity;BMP_temperature;BMP_pressure;BME280_temperature;BME280_humidity;BME280_pressure;Samples;Min_cycle;Max_cycle;Signal;HPM_P1;HPM_P2
2022/04/05 00:01:21;;;;;;;1.23;1.20;;;15.60;51.00;16.70;99703.00;;;;4989049;28;20181;-48
2022/04/05 00:03:47;;;;;;;0.90;0.90;;;15.50;50.90;16.70;99696.00;;;;4988756;28;20418;-48
2022/04/05 00:06:12;;;;;;;1.03;1.03;;;15.60;51.00;16.70;99699.00;;;;4988082;28;20303;-48
2022/04/05 00:08:38;;;;;;;1.30;1.20;;;15.50;51.00;16.70;99709.00;;;;4988485;28;20223;-47
2022/04/05 00:11:04;;;;;;;1.00;1.00;;;15.50;51.10;16.70;99702.00;;;;4988481;28;20250;-48
2022/04/05 00:13:29;;;;;;;1.10;1.10;;;15.50;51.10;16.60;99702.00;;;;4988859;28;20173;-48
2022/04/05 00:15:55;;;;;;;1.10;1.10;;;15.50;51.20;16.60;99698.00;;;;4988695;28;20173;-48
2022/04/05 00:18:21;;;;;;;1.30;1.30;;;15.50;51.20;16.60;99697.00;;;;4988897;28;20652;-48
2022/04/05 00:20:46;;;;;;;1.03;1.03;;;15.40;51.20;16.60;99700.00;;;;4988453;28;20196;-47
2022/04/05 00:23:12;;;;;;;1.00;1.00;;;15.40;51.40;16.60;99701.00;;;;4988534;28;20172;-48
2022/04/05 00:25:38;;;;;;;1.30;1.30;;;15.40;51.30;16.60;99710.00;;;;4987285;28;20304;-50
2022/04/05 00:28:04;;;;;;;1.23;1.17;;;15.40;51.40;16.60;99706.00;;;;4988214;28;20208;-49
2022/04/05 00:30:30;;;;;;;1.30;1.30;;;15.40;51.40;16.60;99702.00;;;;4988265;28;20557;-48
2022/04/05 00:32:56;;;;;;;1.10;1.10;;;15.40;52.60;16.60;99701.00;;;;4987941;28;20176;-47
2022/04/05 00:35:21;;;;;;;1.53;1.43;;;15.40;52.20;16.60;99691.00;;;;4988213;28;20316;-48
2022/04/05 00:37:48;;;;;;;1.30;1.20;;;15.40;53.10;16.60;99693.00;;;;4988224;28;20180;-47
2022/04/05 00:40:14;;;;;;;1.50;1.40;;;15.30;52.60;16.60;99700.00;;;;4988459;28;20665;-49
2022/04/05 00:42:39;;;;;;;1.40;1.40;;;15.30;52.30;16.50;99704.00;;;;4988092;28;20172;-48
2022/04/05 00:45:06;;;;;;;1.30;1.30;;;15.30;52.20;16.50;99692.00;;;;4988134;28;20207;-48
2022/04/05 00:47:31;;;;;;;1.60;1.50;;;15.30;52.30;16.50;99688.00;;;;4987280;28;20204;-49
2022/04/05 00:49:57;;;;;;;1.47;1.40;;;15.30;52.20;16.50;99699.00;;;;4970635;28;20338;-49
2022/04/05 00:52:23;;;;;;;1.40;1.40;;;15.30;52.30;16.50;99644.00;;;;4986737;28;20252;-48
2022/04/05 00:54:51;;;;;;;1.60;1.50;;;15.30;52.20;16.50;99692.00;;;;4986486;28;20169;-48
2022/04/05 00:57:19;;;;;;;1.80;1.70;;;15.30;52.20;16.50;99690.00;;;;4987559;28;20196;-48
2022/04/05 00:59:54;;;;;;;1.40;1.40;;;15.30;52.20;16.50;99688.00;;;;4986737;28;20202;-48
2022/04/05 01:02:20;;;;;;;1.37;1.37;;;15.30;52.40;16.50;99691.00;;;;4986631;28;20179;-47
2022/04/05 01:04:47;;;;;;;1.37;1.37;;;15.20;52.30;16.50;99693.00;;;;4987590;28;20283;-48
2022/04/05 01:07:18;;;;;;;1.43;1.33;;;15.20;52.20;16.50;99683.00;;;;4987351;28;20238;-49
2022/04/05 01:09:44;;;;;;;1.30;1.30;;;15.20;52.30;16.50;99692.00;;;;4987498;28;20204;-48
2022/04/05 01:12:11;;;;;;;1.50;1.50;;;15.20;52.20;16.50;99684.00;;;;4987468;28;20600;-48
2022/04/05 01:14:38;;;;;;;1.50;1.40;;;15.20;52.30;16.40;99685.00;;;;4986531;28;20200;-48
2022/04/05 01:17:04;;;;;;;1.60;1.50;;;15.20;52.30;16.40;99685.00;;;;4986087;28;20530;-48
2022/04/05 01:19:33;;;;;;;1.60;1.50;;;15.20;52.20;16.40;99694.00;;;;4987346;28;20191;-48
2022/04/05 01:21:59;;;;;;;1.20;1.20;;;15.20;52.30;16.40;99694.00;;;;4986167;28;20176;-48
2022/04/05 01:24:24;;;;;;;1.73;1.63;;;15.20;52.30;16.40;99707.00;;;;4987188;28;20171;-49
2022/04/05 01:26:52;;;;;;;1.23;1.23;;;15.10;52.50;16.40;99685.00;;;;4987185;28;20184;-48
2022/04/05 01:29:19;;;;;;;1.60;1.50;;;15.20;52.60;16.40;99691.00;;;;4987127;28;20211;-48
2022/04/05 01:31:54;;;;;;;1.60;1.50;;;15.10;52.40;16.40;99694.00;;;;4986282;28;20710;-48
2022/04/05 01:34:23;;;;;;;1.60;1.50;;;15.10;52.40;16.40;99696.00;;;;4987520;28;20160;-49
2022/04/05 01:36:50;;;;;;;1.60;1.50;;;15.10;52.30;16.30;99694.00;;;;4987311;28;20523;-48
2022/04/05 01:39:18;;;;;;;1.40;1.40;;;15.10;52.40;16.40;99697.00;;;;4987803;28;20322;-48
2022/04/05 01:41:44;;;;;;;1.60;1.50;;;15.10;52.40;16.30;99700.00;;;;4987387;28;20176;-48
2022/04/05 01:44:12;;;;;;;1.60;1.50;;;15.10;52.60;16.30;99693.00;;;;4987268;28;20558;-48
2022/04/05 01:46:37;;;;;;;1.60;1.50;;;15.10;53.10;16.30;99688.00;;;;4986564;28;20215;-48
2022/04/05 01:49:07;;;;;;;1.47;1.37;;;15.00;52.30;16.30;99686.00;;;;4986936;28;20223;-48
2022/04/05 01:51:37;;;;;;;1.30;1.30;;;15.10;52.40;16.30;99699.00;;;;4986233;28;20188;-48
2022/04/05 01:54:07;;;;;;;1.60;1.50;;;15.10;52.40;16.30;99687.00;;;;4985839;28;20664;-48
2022/04/05 01:56:48;;;;;;;1.43;1.40;;;15.00;52.30;16.30;99681.00;;;;4987178;28;20180;-48
2022/04/05 01:59:22;;;;;;;1.47;1.40;;;15.10;52.50;16.30;99699.00;;;;4987322;28;20204;-48
2022/04/05 02:01:48;;;;;;;1.40;1.40;;;15.00;52.30;16.30;99690.00;;;;4986008;28;20591;-48
2022/04/05 02:04:14;;;;;;;1.60;1.50;;;15.00;52.30;16.30;99681.00;;;;4985557;28;20176;-48
2022/04/05 02:06:40;;;;;;;1.13;1.13;;;15.00;52.30;16.30;99685.00;;;;4986553;28;20750;-48
2022/04/05 02:09:06;;;;;;;1.50;1.50;;;15.00;52.40;16.30;99700.00;;;;4986710;28;20204;-47
2022/04/05 02:11:32;;;;;;;1.57;1.47;;;15.00;52.30;16.30;99696.00;;;;4987232;28;20255;-48
2022/04/05 02:13:58;;;;;;;1.37;1.30;;;15.00;52.60;16.30;99690.00;;;;4985728;28;20203;-48
2022/04/05 02:16:25;;;;;;;1.30;1.30;;;15.00;53.40;16.30;99693.00;;;;4986570;28;20204;-48
2022/04/05 02:18:51;;;;;;;1.47;1.40;;;15.00;53.70;16.30;99690.00;;;;4986699;28;20283;-49
2022/04/05 02:21:16;;;;;;;1.80;1.40;;;15.00;53.80;16.30;99664.00;;;;4987127;28;20201;-48
2022/04/05 02:23:42;;;;;;;1.67;1.50;;;15.00;53.40;16.30;99682.00;;;;4985131;28;20180;-47
2022/04/05 02:26:08;;;;;;;2.17;1.43;;;15.00;53.30;16.30;99679.00;;;;4989179;28;20227;-48
2022/04/05 02:28:34;;;;;;;1.60;1.50;;;15.00;53.30;16.30;99677.00;;;;4989405;28;20279;-48
2022/04/05 02:31:00;;;;;;;1.60;1.50;;;15.00;53.20;16.20;99674.00;;;;4989760;28;20319;-48
2022/04/05 02:33:26;;;;;;;2.37;1.50;;;15.00;53.30;16.20;99667.00;;;;4990689;28;20632;-48
2022/04/05 02:35:52;;;;;;;2.33;1.60;;;15.10;53.50;16.20;99675.00;;;;4990511;28;20175;-48
2022/04/05 02:38:18;;;;;;;1.73;1.60;;;15.10;53.30;16.20;99680.00;;;;4990463;28;20584;-48
2022/04/05 02:40:44;;;;;;;2.13;1.50;;;15.10;53.20;16.20;99674.00;;;;4990251;28;20271;-48
2022/04/05 02:43:09;;;;;;;1.70;1.60;;;15.00;53.10;16.20;99686.00;;;;4990004;28;20199;-48
2022/04/05 02:45:35;;;;;;;1.90;1.60;;;15.10;53.10;16.20;99673.00;;;;4989292;28;20176;-48
2022/04/05 02:48:01;;;;;;;1.60;1.50;;;15.00;53.00;16.20;99675.00;;;;4989206;28;20256;-48
2022/04/05 02:50:27;;;;;;;1.50;1.40;;;15.00;53.00;16.20;99669.00;;;;4989607;28;20280;-47
2022/04/05 02:52:53;;;;;;;1.67;1.57;;;15.00;52.90;16.20;99682.00;;;;4989833;28;20205;-47
2022/04/05 02:55:19;;;;;;;1.40;1.30;;;15.00;52.80;16.20;99674.00;;;;4988977;28;20515;-48
2022/04/05 02:57:45;;;;;;;1.60;1.43;;;15.00;52.80;16.20;99676.00;;;;4989186;28;20466;-48
2022/04/05 03:00:13;;;;;;;2.27;1.37;;;15.00;53.00;16.20;99636.00;;;;4989814;28;20562;-48
2022/04/05 03:02:39;;;;;;;1.70;1.60;;;15.00;52.90;16.20;99676.00;;;;4972806;28;20524;-48
2022/04/05 03:05:06;;;;;;;1.50;1.40;;;15.00;53.00;16.20;99670.00;;;;4990050;28;20220;-48
2022/04/05 03:07:34;;;;;;;1.60;1.50;;;15.00;53.00;16.20;99674.00;;;;4989752;28;20200;-48
2022/04/05 03:10:06;;;;;;;1.50;1.40;;;15.00;53.00;16.10;99674.00;;;;4989486;28;20274;-49
2022/04/05 03:12:35;;;;;;;1.90;1.50;;;15.00;53.00;16.10;99672.00;;;;4989731;28;20180;-48
2022/04/05 03:15:01;;;;;;;2.20;1.50;;;15.00;52.90;16.10;99670.00;;;;4989903;28;20641;-47
2022/04/05 03:17:27;;;;;;;1.70;1.60;;;15.00;53.00;16.10;99677.00;;;;4989614;28;20700;-47
2022/04/05 03:19:53;;;;;;;3.43;1.60;;;15.00;53.00;16.10;99689.00;;;;4989819;28;20200;-49
2022/04/05 03:22:18;;;;;;;1.50;1.40;;;14.90;52.90;16.10;99680.00;;;;4989405;28;20222;-48
2022/04/05 03:24:44;;;;;;;2.20;1.53;;;14.90;52.90;15.90;99679.00;;;;4988681;28;20196;-48
2022/04/05 03:27:10;;;;;;;1.63;1.40;;;14.90;53.00;16.10;99676.00;;;;4988870;28;20189;-48
2022/04/05 03:29:35;;;;;;;2.70;1.60;;;14.90;53.40;16.10;99683.00;;;;4988973;28;20188;-47
2022/04/05 03:32:02;;;;;;;4.20;1.80;;;14.90;53.60;16.10;99680.00;;;;4989118;28;20172;-48
2022/04/05 03:34:28;;;;;;;3.43;1.57;;;15.00;54.70;16.10;99675.00;;;;4987721;28;20179;-47
2022/04/05 03:36:54;;;;;;;1.70;1.60;;;14.90;54.10;16.10;99679.00;;;;4988739;28;20634;-48
2022/04/05 03:39:20;;;;;;;4.80;1.50;;;14.90;54.20;16.10;99673.00;;;;4988640;28;20199;-48
2022/04/05 03:41:46;;;;;;;3.23;1.60;;;14.90;54.10;16.10;99672.00;;;;4988569;28;20168;-48
2022/04/05 03:44:11;;;;;;;1.63;1.53;;;14.90;54.00;16.10;99674.00;;;;4986563;28;20177;-48
2022/04/05 03:46:37;;;;;;;5.63;1.83;;;14.90;54.10;16.10;99668.00;;;;4987128;28;20200;-48
2022/04/05 03:49:03;;;;;;;10.67;2.40;;;14.90;54.40;16.10;99674.00;;;;4988399;28;20204;-48
2022/04/05 03:51:29;;;;;;;10.10;2.40;;;14.90;54.60;16.00;99679.00;;;;4988775;28;20473;-48
2022/04/05 03:53:55;;;;;;;14.00;2.80;;;14.90;54.70;16.10;99681.00;;;;4988398;28;20168;-48
2022/04/05 03:56:21;;;;;;;11.17;2.40;;;14.90;55.40;16.10;99681.00;;;;4988082;28;20396;-48
2022/04/05 03:58:48;;;;;;;9.27;2.20;;;14.90;56.00;16.10;99676.00;;;;4986981;28;20212;-48
2022/04/05 04:01:13;;;;;;;8.17;2.57;;;14.90;56.70;16.00;99684.00;;;;4988253;28;20172;-48
2022/04/05 04:03:39;;;;;;;5.53;2.30;;;15.00;56.80;16.00;99683.00;;;;4988260;28;20172;-48
2022/04/05 04:06:05;;;;;;;8.70;2.13;;;15.00;57.20;16.10;99693.00;;;;4988151;28;20168;-48
2022/04/05 04:08:30;;;;;;;3.70;2.17;;;15.00;57.50;16.10;99687.00;;;;4987747;28;20197;-48
2022/04/05 04:10:56;;;;;;;7.43;2.30;;;14.90;57.20;16.10;99680.00;;;;4986760;28;20208;-47
2022/04/05 04:13:22;;;;;;;5.60;2.10;;;14.90;56.80;16.10;99687.00;;;;4987862;28;20200;-48
2022/04/05 04:15:47;;;;;;;6.47;2.57;;;15.00;56.80;16.10;99684.00;;;;4983748;28;20203;-48
2022/04/05 04:18:13;;;;;;;6.17;2.10;;;14.90;56.50;16.10;99685.00;;;;4986459;28;20180;-48
2022/04/05 04:20:39;;;;;;;4.53;2.00;;;14.90;56.30;16.00;99688.00;;;;4987863;28;20196;-48
2022/04/05 04:23:05;;;;;;;7.37;2.00;;;14.90;56.30;16.00;99685.00;;;;4988142;28;20172;-47
2022/04/05 04:25:31;;;;;;;5.97;2.43;;;14.90;56.20;16.00;99686.00;;;;4987914;28;20682;-48
2022/04/05 04:27:57;;;;;;;5.37;1.83;;;14.90;56.20;16.10;99681.00;;;;4987448;28;20204;-48
2022/04/05 04:30:23;;;;;;;3.70;1.90;;;14.90;56.20;16.00;99695.00;;;;5002424;28;20200;-48
2022/04/05 04:32:49;;;;;;;7.73;2.27;;;14.90;56.10;16.00;99693.00;;;;4987929;28;20551;-49
2022/04/05 04:35:15;;;;;;;6.57;2.00;;;14.90;56.00;16.00;99691.00;;;;4987785;28;20231;-48
2022/04/05 04:37:40;;;;;;;5.17;1.90;;;14.90;55.80;16.10;99686.00;;;;4987757;28;20200;-48
2022/04/05 04:40:07;;;;;;;4.03;1.90;;;14.90;55.80;16.00;99695.00;;;;4987221;28;20670;-48
2022/04/05 04:42:33;;;;;;;2.77;1.60;;;14.80;55.70;16.00;99693.00;;;;4987729;28;20181;-48
2022/04/05 04:44:59;;;;;;;2.67;1.83;;;14.90;55.70;16.00;99687.00;;;;4987827;28;20200;-48
2022/04/05 04:47:25;;;;;;;2.77;2.00;;;14.80;55.50;16.00;99697.00;;;;4987109;28;20204;-48
2022/04/05 04:49:51;;;;;;;2.10;1.60;;;14.90;55.60;16.00;99699.00;;;;4986817;28;20356;-48
2022/04/05 04:52:16;;;;;;;3.40;1.83;;;14.90;55.50;16.00;99704.00;;;;4987567;28;20169;-47
2022/04/05 04:54:42;;;;;;;3.27;1.80;;;14.90;55.50;16.00;99630.00;;;;4987749;28;20572;-47
2022/04/05 04:57:08;;;;;;;3.13;1.80;;;14.90;55.40;16.00;99702.00;;;;4987336;28;20180;-48
2022/04/05 04:59:33;;;;;;;2.20;1.60;;;14.90;55.40;16.00;99704.00;;;;4986727;28;20184;-48
2022/04/05 05:01:59;;;;;;;3.17;2.00;;;14.80;55.30;16.00;99708.00;;;;5001945;28;20743;-48
2022/04/05 05:04:25;;;;;;;3.30;1.87;;;14.80;55.30;16.00;99711.00;;;;4987193;28;20173;-48
2022/04/05 05:06:51;;;;;;;3.23;1.67;;;14.80;55.30;16.00;99698.00;;;;4986971;28;20176;-49
2022/04/05 05:09:17;;;;;;;3.83;1.90;;;14.80;55.30;16.00;99701.00;;;;4986827;28;20255;-47
2022/04/05 05:11:44;;;;;;;2.43;1.80;;;14.80;55.20;16.00;99701.00;;;;5001958;28;20209;-47
2022/04/05 05:14:10;;;;;;;1.73;1.63;;;14.80;55.20;16.00;99709.00;;;;4987296;28;20192;-47
2022/04/05 05:16:36;;;;;;;2.13;1.80;;;14.80;55.20;16.00;99707.00;;;;4986543;28;20175;-47
2022/04/05 05:19:02;;;;;;;1.77;1.60;;;14.80;55.20;15.90;99705.00;;;;4986598;28;20192;-48
2022/04/05 05:21:28;;;;;;;2.30;1.67;;;14.80;55.10;16.00;99729.00;;;;4986580;28;20199;-49
2022/04/05 05:23:53;;;;;;;3.17;1.70;;;14.80;55.20;15.90;99712.00;;;;4986402;28;20208;-48
2022/04/05 05:26:19;;;;;;;2.50;1.70;;;14.70;55.10;16.00;99727.00;;;;5001915;28;20179;-48
2022/04/05 05:28:45;;;;;;;2.00;1.80;;;14.80;55.10;16.00;99721.00;;;;4986442;28;20204;-48
2022/04/05 05:31:10;;;;;;;1.80;1.70;;;14.80;55.00;15.90;99713.00;;;;4986248;28;20172;-48
2022/04/05 05:33:36;;;;;;;1.80;1.70;;;14.80;55.00;15.90;99720.00;;;;5001835;28;20177;-48
2022/04/05 05:36:02;;;;;;;1.73;1.63;;;14.80;55.10;15.90;99717.00;;;;4986677;28;20641;-48
2022/04/05 05:38:28;;;;;;;2.13;1.53;;;14.80;55.00;15.90;99723.00;;;;5001292;28;20184;-48
2022/04/05 05:40:54;;;;;;;1.60;1.50;;;14.80;55.00;15.90;99726.00;;;;4986460;28;20200;-48
2022/04/05 05:43:21;;;;;;;2.17;1.70;;;14.70;55.00;15.90;99722.00;;;;4986728;28;20183;-48
2022/04/05 05:45:47;;;;;;;2.20;1.77;;;14.80;55.00;15.90;99722.00;;;;5001304;28;20176;-48
2022/04/05 05:48:12;;;;;;;1.60;1.50;;;14.80;55.00;15.90;99723.00;;;;4986319;28;20207;-47
2022/04/05 05:50:38;;;;;;;1.70;1.60;;;14.70;54.80;15.90;99732.00;;;;4986365;28;20201;-48
2022/04/05 05:53:04;;;;;;;1.73;1.63;;;14.80;54.90;15.90;99733.00;;;;4986672;28;20665;-48
2022/04/05 05:55:30;;;;;;;1.77;1.67;;;14.70;54.80;15.90;99728.00;;;;4986105;28;20172;-48
2022/04/05 05:57:56;;;;;;;1.80;1.70;;;14.80;54.90;15.90;99731.00;;;;4986042;28;20180;-48
2022/04/05 06:00:22;;;;;;;1.40;1.33;;;14.70;54.90;15.90;99734.00;;;;4989482;28;20274;-48
2022/04/05 06:02:55;;;;;;;2.93;1.57;;;14.70;55.30;15.90;99744.00;;;;4993254;28;20238;-48
2022/04/05 06:05:21;;;;;;;1.90;1.70;;;14.70;55.50;15.90;99744.00;;;;4993370;28;20172;-48
2022/04/05 06:07:47;;;;;;;1.67;1.57;;;14.70;55.50;15.90;99736.00;;;;4992953;28;20192;-48
2022/04/05 06:10:13;;;;;;;5.50;2.00;;;14.70;55.40;15.90;99739.00;;;;4991810;28;20262;-48
2022/04/05 06:12:40;;;;;;;2.73;1.70;;;14.70;55.50;15.90;99750.00;;;;4993510;28;20656;-48
2022/04/05 06:15:08;;;;;;;3.40;1.80;;;14.70;55.50;15.90;99749.00;;;;4993883;28;20174;-48
2022/04/05 06:17:39;;;;;;;1.83;1.70;;;14.70;55.50;15.90;99741.00;;;;4992867;28;20641;-48
2022/04/05 06:20:05;;;;;;;1.80;1.67;;;14.70;55.50;15.90;99742.00;;;;4991475;28;20708;-48
2022/04/05 06:22:39;;;;;;;2.27;1.80;;;14.60;55.30;15.90;99751.00;;;;4991903;28;20199;-48
2022/04/05 06:25:06;;;;;;;1.70;1.60;;;14.70;55.50;15.90;99743.00;;;;4992744;28;20164;-48
2022/04/05 06:27:31;;;;;;;2.03;1.80;;;14.70;55.20;15.90;99742.00;;;;4992881;28;20255;-48
2022/04/05 06:29:57;;;;;;;1.97;1.60;;;14.70;55.10;15.90;99750.00;;;;4991059;28;20210;-47
2022/04/05 06:32:23;;;;;;;1.60;1.50;;;14.70;55.00;15.90;99752.00;;;;4993070;28;20186;-47
2022/04/05 06:34:48;;;;;;;1.63;1.53;;;14.70;55.00;15.90;99753.00;;;;4992244;28;20179;-48
2022/04/05 06:37:14;;;;;;;1.87;1.77;;;14.70;55.00;15.90;99754.00;;;;4992773;28;20179;-48
2022/04/05 06:39:40;;;;;;;1.83;1.73;;;14.70;54.80;15.90;99759.00;;;;4991871;28;20816;-48
2022/04/05 06:42:06;;;;;;;2.13;1.87;;;14.70;54.90;15.80;99757.00;;;;4992427;28;20172;-48
2022/04/05 06:44:31;;;;;;;1.87;1.73;;;14.80;54.90;15.90;99756.00;;;;4992729;28;20183;-48
2022/04/05 06:46:57;;;;;;;1.90;1.70;;;14.70;54.70;15.90;99756.00;;;;4992581;28;20564;-48
2022/04/05 06:49:23;;;;;;;1.93;1.80;;;14.70;54.80;15.90;99762.00;;;;4992713;28;20196;-48
2022/04/05 06:51:48;;;;;;;1.80;1.70;;;14.70;54.70;15.90;99769.00;;;;4992342;28;20168;-48
2022/04/05 06:54:14;;;;;;;5.97;1.90;;;14.70;54.70;15.90;99762.00;;;;4992367;28;20169;-48
2022/04/05 06:56:40;;;;;;;3.97;1.70;;;14.70;55.50;15.90;99757.00;;;;4991247;28;20179;-48
2022/04/05 06:59:05;;;;;;;3.17;1.80;;;14.70;55.40;15.90;99769.00;;;;4991970;28;20188;-47
2022/04/05 07:01:32;;;;;;;1.97;1.50;;;14.70;55.10;15.90;99770.00;;;;4992189;28;20180;-47
2022/04/05 07:03:59;;;;;;;1.97;1.80;;;14.70;55.00;15.90;99768.00;;;;4992487;28;20164;-49
2022/04/05 07:06:25;;;;;;;1.90;1.80;;;14.70;54.90;15.90;99766.00;;;;4992429;28;20272;-48
2022/04/05 07:08:50;;;;;;;1.70;1.60;;;14.70;54.80;15.90;99776.00;;;;4990363;28;20204;-48
2022/04/05 07:11:17;;;;;;;2.27;2.00;;;14.70;54.80;15.90;99772.00;;;;4991321;28;20184;-48
2022/04/05 07:13:42;;;;;;;1.83;1.60;;;14.70;54.80;15.90;99775.00;;;;4992254;28;20176;-48
2022/04/05 07:16:08;;;;;;;2.00;1.80;;;14.70;54.80;15.90;99780.00;;;;4991621;28;20234;-49
2022/04/05 07:18:34;;;;;;;1.80;1.70;;;14.70;54.80;15.80;99768.00;;;;4991808;28;20164;-48
2022/04/05 07:21:01;;;;;;;1.77;1.67;;;14.70;54.60;15.80;99780.00;;;;4991385;28;20254;-48
2022/04/05 07:23:27;;;;;;;2.23;1.70;;;14.70;54.50;15.90;99771.00;;;;4991974;28;20207;-48
2022/04/05 07:25:53;;;;;;;1.80;1.70;;;14.60;54.40;15.90;99777.00;;;;4991642;28;20803;-48
2022/04/05 07:28:19;;;;;;;1.60;1.50;;;14.70;54.50;15.90;99771.00;;;;4991470;28;20204;-48
2022/04/05 07:30:44;;;;;;;1.80;1.70;;;14.70;54.50;15.90;99774.00;;;;4991093;28;20196;-48
2022/04/05 07:33:10;;;;;;;5.03;1.90;;;14.70;54.50;15.90;99772.00;;;;4991540;28;20172;-48
2022/04/05 07:35:36;;;;;;;4.27;1.90;;;14.60;54.80;15.90;99771.00;;;;4991389;28;20215;-48
2022/04/05 07:38:01;;;;;;;2.03;1.80;;;14.70;55.00;15.90;99772.00;;;;4991221;28;20184;-48
2022/04/05 07:40:47;;;;;;;2.03;1.80;;;14.70;55.10;15.90;99775.00;;;;4991103;28;20199;-48
2022/04/05 07:43:13;;;;;;;2.00;1.80;;;14.90;55.40;16.00;99765.00;;;;4896557;28;20246;-48
2022/04/05 07:45:39;;;;;;;1.87;1.70;;;15.10;54.90;16.10;99768.00;;;;4991451;28;20259;-48
2022/04/05 07:48:05;;;;;;;1.70;1.50;;;15.40;54.80;16.20;99764.00;;;;5000000;28;20199;-48
2022/04/05 07:50:30;;;;;;;1.70;1.60;;;15.70;54.50;16.30;99770.00;;;;5010270;28;20564;-48
2022/04/05 07:52:56;;;;;;;2.73;1.70;;;16.00;54.00;16.50;99772.00;;;;5000203;28;20169;-49
2022/04/05 07:55:22;;;;;;;4.13;1.70;;;16.30;53.50;16.70;99755.00;;;;4991131;28;20179;-48
2022/04/05 07:57:49;;;;;;;2.27;1.60;;;16.60;53.10;16.90;99772.00;;;;4990599;28;20184;-48
2022/04/05 08:00:15;;;;;;;1.77;1.67;;;17.00;52.70;17.10;99772.00;;;;4989982;28;20227;-48
2022/04/05 08:02:41;;;;;;;2.37;1.67;;;17.20;52.40;17.30;99769.00;;;;4989578;28;20179;-48
2022/04/05 08:05:07;;;;;;;2.00;1.43;;;17.50;52.50;17.50;99777.00;;;;4991204;28;20176;-48
2022/04/05 08:07:33;;;;;;;3.33;1.67;;;17.60;52.20;17.70;99778.00;;;;4990644;28;20197;-51
2022/04/05 08:09:59;;;;;;;3.13;1.90;;;17.70;52.20;17.80;99772.00;;;;4990190;28;20208;-48
2022/04/05 08:12:25;;;;;;;4.60;1.90;;;17.80;52.60;17.90;99717.00;;;;4991076;28;20760;-49
2022/04/05 08:14:51;;;;;;;6.17;1.80;;;17.80;52.60;18.00;99780.00;;;;4990635;28;20172;-47
2022/04/05 08:17:16;;;;;;;2.73;1.70;;;17.80;52.80;18.10;99788.00;;;;4990123;28;20184;-48
2022/04/05 08:19:42;;;;;;;3.07;1.67;;;17.80;52.90;18.10;99780.00;;;;4989970;28;20196;-48
2022/04/05 08:22:08;;;;;;;3.83;1.70;;;17.80;53.10;18.20;99785.00;;;;4990063;28;20549;-50
2022/04/05 08:24:35;;;;;;;3.30;1.87;;;17.80;53.30;18.20;99779.00;;;;4990322;28;20177;-47
2022/04/05 08:27:01;;;;;;;4.80;1.90;;;17.90;53.50;18.30;99771.00;;;;4990166;28;20182;-47
2022/04/05 08:29:27;;;;;;;2.30;1.80;;;17.80;53.50;18.30;99790.00;;;;4990647;28;20184;-47
2022/04/05 08:31:52;;;;;;;2.57;1.93;;;17.80;53.70;18.30;99783.00;;;;4990195;28;20169;-48
2022/04/05 08:34:18;;;;;;;3.47;1.90;;;17.80;54.20;18.30;99791.00;;;;4990713;28;20765;-48
2022/04/05 08:36:44;;;;;;;4.07;2.00;;;17.80;54.20;18.40;99792.00;;;;4998907;28;20176;-48
2022/04/05 08:39:10;;;;;;;8.00;2.20;;;17.70;54.40;18.40;99799.00;;;;4988111;28;20201;-47
2022/04/05 08:41:36;;;;;;;3.97;2.10;;;17.70;55.00;18.40;99796.00;;;;4989773;28;20201;-47
2022/04/05 08:44:02;;;;;;;2.90;2.00;;;17.70;55.60;18.40;99801.00;;;;4904050;28;20280;-47
2022/04/05 08:46:31;;;;;;;4.97;2.00;;;17.70;55.70;18.40;99801.00;;;;4970768;28;20252;-49
2022/04/05 08:48:57;;;;;;;3.57;1.90;;;17.70;55.70;18.40;99803.00;;;;4968793;28;20586;-48
2022/04/05 08:51:22;;;;;;;3.27;2.00;;;17.70;55.60;18.40;99805.00;;;;4969794;28;20163;-49
2022/04/05 08:53:48;;;;;;;2.63;1.93;;;17.60;55.50;18.40;99804.00;;;;4980614;28;20177;-49
2022/04/05 08:56:15;;;;;;;3.40;2.00;;;17.50;55.50;18.40;99809.00;;;;4986694;28;20239;-49
2022/04/05 08:58:41;;;;;;;3.73;2.07;;;17.50;55.80;18.40;99805.00;;;;4989475;28;20167;-49
2022/04/05 09:01:06;;;;;;;3.00;2.00;;;17.50;55.80;18.30;99804.00;;;;4989550;28;20165;-49
2022/04/05 09:03:34;;;;;;;3.33;1.90;;;17.50;55.70;18.40;99805.00;;;;4989707;28;20259;-49
2022/04/05 09:06:23;;;;;;;4.97;2.43;;;17.50;55.80;18.40;99818.00;;;;4989272;28;20276;-49
2022/04/05 09:08:48;;;;;;;3.10;1.77;;;17.50;55.70;18.30;99809.00;;;;4987583;28;20275;-49
2022/04/05 09:11:14;;;;;;;2.27;2.00;;;17.40;55.70;18.30;99808.00;;;;4988781;28;20190;-49
2022/04/05 09:13:40;;;;;;;3.33;1.80;;;17.40;55.90;18.30;99809.00;;;;4989180;28;20177;-49
2022/04/05 09:16:08;;;;;;;2.97;1.97;;;17.40;56.00;18.30;99806.00;;;;4988078;28;20150;-49
2022/04/05 09:18:38;;;;;;;2.80;2.00;;;17.40;56.20;18.30;99809.00;;;;4988727;28;20172;-49
2022/04/05 09:21:08;;;;;;;4.03;2.10;;;17.40;56.20;18.30;99812.00;;;;4988566;28;20382;-49
2022/04/05 09:23:41;;;;;;;4.87;2.10;;;17.30;56.10;18.30;99812.00;;;;4989353;28;20696;-48
2022/04/05 09:26:14;;;;;;;3.07;2.20;;;17.30;56.20;18.20;99813.00;;;;4988881;28;20176;-48
2022/04/05 09:28:45;;;;;;;3.60;2.40;;;17.30;56.20;18.20;99804.00;;;;4987288;28;20188;-48
2022/04/05 09:31:21;;;;;;;5.93;2.20;;;17.30;56.30;18.20;99824.00;;;;4989208;28;20161;-48
2022/04/05 09:34:12;;;;;;;2.70;2.30;;;17.20;56.50;18.20;99818.00;;;;4989216;28;20638;-48
2022/04/05 09:36:49;;;;;;;2.30;2.10;;;17.20;56.60;18.20;99818.00;;;;4997378;28;20655;-48
2022/04/05 09:39:24;;;;;;;3.83;2.03;;;17.20;56.60;18.20;99824.00;;;;5008778;28;20239;-48
2022/04/05 09:42:00;;;;;;;3.47;2.37;;;17.20;56.40;18.20;99825.00;;;;5008802;28;20196;-48
2022/04/05 09:44:32;;;;;;;3.40;2.30;;;17.20;56.40;18.20;99823.00;;;;4903717;28;20173;-48
2022/04/05 09:47:17;;;;;;;2.50;2.00;;;17.10;56.20;18.10;99801.00;;;;4969466;28;20260;-48
2022/04/05 09:49:49;;;;;;;4.43;2.30;;;17.10;56.20;18.10;99826.00;;;;4968169;28;20258;-48
2022/04/05 09:52:32;;;;;;;2.87;2.10;;;17.10;56.20;18.10;99826.00;;;;4968414;28;20169;-48
2022/04/05 09:55:15;;;;;;;2.33;2.10;;;17.10;56.10;18.10;99832.00;;;;4969819;28;20220;-47
2022/04/05 09:57:42;;;;;;;2.13;1.90;;;17.10;56.10;18.10;99826.00;;;;4969149;28;20201;-48
2022/04/05 10:00:18;;;;;;;3.47;2.00;;;17.00;55.90;18.10;99827.00;;;;4969059;28;20251;-48
2022/04/05 10:03:05;;;;;;;1.90;1.80;;;17.00;56.00;18.10;99828.00;;;;4969025;28;20192;-48
2022/04/05 10:05:35;;;;;;;2.20;2.00;;;17.00;55.90;18.00;99832.00;;;;4970334;28;20177;-47
2022/04/05 10:08:01;;;;;;;3.07;2.00;;;17.00;55.90;18.00;99837.00;;;;4969508;28;20271;-47
2022/04/05 10:10:27;;;;;;;2.60;1.97;;;17.00;55.80;18.00;99826.00;;;;4968671;28;20201;-48
2022/04/05 10:12:53;;;;;;;3.57;2.00;;;17.00;55.90;18.00;99831.00;;;;4969472;28;20863;-48
2022/04/05 10:15:22;;;;;;;2.30;2.10;;;16.90;55.80;17.80;99834.00;;;;4967839;28;20169;-48
2022/04/05 10:17:53;;;;;;;2.33;2.10;;;16.90;55.80;18.00;99835.00;;;;4968900;28;20789;-49
2022/04/05 10:20:19;;;;;;;2.93;2.03;;;16.90;55.80;18.00;99825.00;;;;4967608;28;20236;-49
2022/04/05 10:22:51;;;;;;;2.30;2.10;;;16.90;56.00;18.00;99757.00;;;;4968245;28;20181;-50
2022/04/05 10:25:17;;;;;;;2.47;2.00;;;16.90;55.90;18.00;99830.00;;;;4968031;28;20189;-50
2022/04/05 10:27:43;;;;;;;5.37;2.27;;;16.90;56.00;17.90;99825.00;;;;4979434;28;20247;-49
2022/04/05 10:30:20;;;;;;;4.07;2.10;;;16.90;56.30;17.90;99822.00;;;;4987373;28;20783;-49
2022/04/05 10:33:30;;;;;;;3.03;2.10;;;16.90;56.60;17.90;99831.00;;;;4987458;28;20164;-48
2022/04/05 10:36:00;;;;;;;2.77;2.20;;;16.90;56.60;17.90;99825.00;;;;4951102;28;20264;-49
2022/04/05 10:38:27;;;;;;;2.40;2.10;;;16.90;56.30;17.90;99828.00;;;;5018038;28;20234;-49
2022/04/05 10:41:19;;;;;;;4.30;2.10;;;16.90;56.30;17.90;99831.00;;;;4995205;28;20204;-49
2022/04/05 10:43:49;;;;;;;2.37;2.10;;;16.90;56.30;17.90;99842.00;;;;4916088;28;20536;-49
2022/04/05 10:46:38;;;;;;;2.40;2.20;;;16.90;56.30;17.80;99838.00;;;;5007131;28;20183;-49
2022/04/05 10:49:07;;;;;;;3.50;2.30;;;16.90;56.30;17.80;99837.00;;;;5004547;28;20219;-49
2022/04/05 10:51:54;;;;;;;2.47;2.20;;;16.90;56.10;17.80;99834.00;;;;4991189;28;20180;-49
2022/04/05 10:54:19;;;;;;;2.80;2.10;;;16.90;56.00;17.80;99834.00;;;;5004821;28;20168;-49
2022/04/05 10:57:16;;;;;;;2.73;2.10;;;16.90;55.90;17.80;99845.00;;;;4991277;28;20175;-49